createdAt,value
2023-04-01T00:01:14.800Z,3.10
2023-04-01T00:03:43.361Z,5.05
2023-04-01T00:06:14.767Z,3.28
2023-04-01T00:08:43.058Z,1.65
2023-04-01T00:11:11.467Z,4.63
2023-04-01T00:13:41.402Z,3.35
2023-04-01T00:16:20.011Z,4.20
2023-04-01T00:18:50.615Z,2.37
2023-04-01T00:21:19.093Z,4.45
2023-04-01T00:23:47.327Z,1.50
2023-04-01T00:26:19.928Z,1.80
2023-04-01T00:28:49.812Z,1.42
2023-04-01T00:31:18.532Z,2.70
2023-04-01T00:33:46.855Z,2.58
2023-04-01T00:36:17.320Z,2.70
2023-04-01T00:38:45.767Z,1.60
2023-04-01T00:41:16.671Z,2.25
2023-04-01T00:43:47.213Z,1.70
2023-04-01T00:46:17.151Z,2.22
2023-04-01T00:48:49.317Z,3.70
2023-04-01T00:51:22.479Z,4.00
2023-04-01T00:53:54.391Z,4.35
2023-04-01T00:56:27.906Z,6.32
2023-04-01T00:59:00.457Z,4.97
2023-04-01T01:01:32.216Z,2.63
2023-04-01T01:04:00.763Z,2.50
2023-04-01T01:06:46.020Z,2.30
2023-04-01T01:09:28.741Z,2.90
2023-04-01T01:12:04.123Z,2.88
2023-04-01T01:14:45.427Z,3.00
2023-04-01T01:17:22.565Z,2.40
2023-04-01T01:20:26.372Z,1.80
2023-04-01T01:23:20.090Z,1.50
2023-04-01T01:26:01.878Z,2.20
2023-04-01T01:28:46.715Z,1.20
2023-04-01T01:31:22.799Z,1.10
2023-04-01T01:34:09.641Z,1.67
2023-04-01T01:36:43.614Z,1.38
2023-04-01T01:39:13.857Z,1.30
2023-04-01T01:41:45.992Z,1.30
2023-04-01T01:44:16.389Z,2.58
2023-04-01T01:46:46.907Z,1.30
2023-04-01T01:49:17.173Z,1.70
2023-04-01T01:51:46.976Z,1.45
2023-04-01T01:54:16.247Z,1.60
2023-04-01T01:56:49.869Z,2.20
2023-04-01T01:59:22.976Z,1.40
2023-04-01T02:01:54.720Z,3.13
2023-04-01T02:04:24.811Z,1.52
2023-04-01T02:06:58.656Z,1.00
2023-04-01T02:09:27.239Z,0.90
2023-04-01T02:12:18.949Z,0.80
2023-04-01T02:14:53.696Z,1.10
2023-04-01T02:17:23.614Z,2.10
2023-04-01T02:19:57.982Z,1.50
2023-04-01T02:22:31.407Z,4.10
2023-04-01T02:25:01.859Z,2.53
2023-04-01T02:27:30.851Z,1.27
2023-04-01T02:29:59.652Z,2.10
2023-04-01T02:32:29.956Z,1.23
2023-04-01T02:35:00.754Z,4.32
2023-04-01T02:37:31.089Z,1.58
2023-04-01T02:40:02.407Z,1.13
2023-04-01T02:42:31.066Z,1.17
2023-04-01T02:44:59.259Z,1.70
2023-04-01T02:47:28.356Z,2.90
2023-04-01T02:49:59.517Z,2.70
2023-04-01T02:52:28.170Z,0.82
2023-04-01T02:54:59.678Z,1.80
2023-04-01T02:57:28.154Z,1.73
2023-04-01T02:59:56.483Z,1.00
2023-04-01T03:02:24.920Z,1.27
2023-04-01T03:04:53.685Z,2.33
2023-04-01T03:07:21.903Z,0.70
2023-04-01T03:09:51.599Z,1.13
2023-04-01T03:12:21.567Z,2.60
2023-04-01T03:14:52.746Z,3.08
2023-04-01T03:17:21.041Z,2.30
2023-04-01T03:19:49.483Z,1.33
2023-04-01T03:22:19.994Z,2.42
2023-04-01T03:24:48.326Z,2.50
2023-04-01T03:27:16.746Z,4.50
2023-04-01T03:29:47.460Z,2.60
2023-04-01T03:32:16.199Z,5.03
2023-04-01T03:34:44.567Z,1.45
2023-04-01T03:37:13.982Z,1.90
2023-04-01T03:39:44.446Z,3.10
2023-04-01T03:42:12.859Z,2.15
2023-04-01T03:44:41.092Z,2.08
2023-04-01T03:47:13.382Z,2.60
2023-04-01T03:49:41.641Z,2.50
2023-04-01T03:52:12.764Z,2.77
2023-04-01T03:54:41.562Z,2.40
2023-04-01T03:57:11.159Z,2.00
2023-04-01T03:59:39.622Z,1.67
2023-04-01T04:02:08.036Z,2.60
2023-04-01T04:04:38.002Z,2.40
2023-04-01T04:07:06.356Z,2.95
2023-04-01T04:09:51.835Z,1.52
2023-04-01T04:12:20.104Z,2.35
2023-04-01T04:14:48.341Z,4.30
2023-04-01T04:17:17.334Z,2.78
2023-04-01T04:19:47.681Z,2.45
2023-04-01T04:22:18.053Z,3.05
2023-04-01T04:24:46.373Z,5.20
2023-04-01T04:27:15.549Z,2.78
2023-04-01T04:29:53.331Z,2.10
2023-04-01T04:32:21.660Z,2.60
2023-04-01T04:34:51.328Z,5.82
2023-04-01T04:37:20.688Z,2.17
2023-04-01T04:39:49.669Z,2.10
2023-04-01T04:42:18.112Z,1.10
2023-04-01T04:44:46.763Z,1.50
2023-04-01T04:47:15.447Z,1.40
2023-04-01T04:49:43.733Z,2.15
2023-04-01T04:52:13.323Z,0.90
2023-04-01T04:54:41.699Z,2.20
2023-04-01T04:57:09.931Z,1.37
2023-04-01T04:59:45.773Z,1.33
2023-04-01T05:02:18.554Z,1.50
2023-04-01T05:04:46.796Z,3.70
2023-04-01T05:07:16.792Z,2.70
2023-04-01T05:09:46.749Z,2.20
2023-04-01T05:12:15.522Z,7.50
2023-04-01T05:15:04.770Z,4.13
2023-04-01T05:17:34.472Z,1.83
2023-04-01T05:20:04.543Z,2.80
2023-04-01T05:22:35.505Z,2.38
2023-04-01T05:25:04.152Z,2.80
2023-04-01T05:27:32.752Z,3.50
2023-04-01T05:30:02.034Z,4.00
2023-04-01T05:32:59.357Z,3.70
2023-04-01T05:35:27.969Z,2.33
2023-04-01T05:37:58.190Z,2.35
2023-04-01T05:40:26.462Z,4.27
2023-04-01T05:42:55.798Z,1.83
2023-04-01T05:45:24.025Z,3.80
2023-04-01T05:48:02.167Z,3.15
2023-04-01T05:50:38.310Z,4.97
2023-04-01T05:53:08.602Z,3.45
2023-04-01T05:55:37.952Z,4.10
2023-04-01T05:58:06.730Z,2.60
2023-04-01T06:00:36.934Z,2.58
2023-04-01T06:03:05.502Z,1.42
2023-04-01T06:05:41.932Z,1.55
2023-04-01T06:08:17.623Z,1.90
2023-04-01T06:11:01.731Z,2.95
2023-04-01T06:13:41.501Z,1.70
2023-04-01T06:16:18.135Z,2.73
2023-04-01T06:18:55.309Z,1.95
2023-04-01T06:21:45.595Z,1.65
2023-04-01T06:24:38.888Z,1.60
2023-04-01T06:27:16.153Z,2.70
2023-04-01T06:29:57.774Z,2.80
2023-04-01T06:32:48.870Z,1.30
2023-04-01T06:35:43.334Z,2.28
2023-04-01T06:38:32.591Z,1.38
2023-04-01T06:41:30.747Z,1.30
2023-04-01T06:44:10.147Z,6.20
2023-04-01T06:47:01.196Z,3.00
2023-04-01T06:49:57.584Z,2.60
2023-04-01T06:52:34.560Z,2.00
2023-04-01T06:55:44.491Z,2.28
2023-04-01T06:58:29.520Z,3.92
2023-04-01T07:01:03.052Z,2.03
2023-04-01T07:03:35.489Z,2.80
2023-04-01T07:06:08.331Z,2.65
2023-04-01T07:08:45.122Z,3.20
2023-04-01T07:11:23.848Z,2.70
2023-04-01T07:14:19.485Z,4.10
2023-04-01T07:16:53.415Z,2.65
2023-04-01T07:19:27.916Z,2.70
2023-04-01T07:22:08.660Z,2.00
2023-04-01T07:24:59.034Z,2.33
2023-04-01T07:27:27.588Z,1.60
2023-04-01T07:30:01.303Z,3.70
2023-04-01T07:32:41.210Z,4.20
2023-04-01T07:35:18.317Z,2.33
2023-04-01T07:37:59.494Z,1.92
2023-04-01T07:40:39.233Z,1.77
2023-04-01T07:43:32.253Z,2.17
2023-04-01T07:46:37.510Z,2.50
2023-04-01T07:49:10.178Z,2.70
2023-04-01T07:51:47.326Z,1.23
2023-04-01T07:54:24.681Z,2.22
2023-04-01T07:57:00.641Z,1.55
2023-04-01T07:59:55.371Z,3.00
2023-04-01T08:02:40.856Z,2.00
2023-04-01T08:05:18.531Z,3.08
2023-04-01T08:07:56.017Z,2.10
2023-04-01T08:10:52.757Z,1.45
2023-04-01T08:13:46.949Z,1.95
2023-04-01T08:16:43.083Z,1.65
2023-04-01T08:19:29.838Z,3.20
2023-04-01T08:22:05.613Z,2.40
2023-04-01T08:24:47.219Z,1.00
2023-04-01T08:27:28.301Z,2.10
2023-04-01T08:30:01.813Z,2.40
2023-04-01T08:32:37.189Z,1.98
2023-04-01T08:35:20.300Z,1.42
2023-04-01T08:37:52.779Z,2.80
2023-04-01T08:40:59.350Z,5.60
2023-04-01T08:44:10.555Z,1.80
2023-04-01T08:47:09.881Z,2.88
2023-04-01T08:50:10.071Z,1.90
2023-04-01T08:53:01.156Z,2.38
2023-04-01T08:55:53.446Z,2.22
2023-04-01T08:58:35.949Z,1.70
2023-04-01T09:01:27.489Z,3.50
2023-04-01T09:04:16.591Z,1.70
2023-04-01T09:06:57.496Z,1.60
2023-04-01T09:10:01.638Z,1.65
2023-04-01T09:12:50.413Z,2.50
2023-04-01T09:15:39.880Z,1.30
2023-04-01T09:18:49.387Z,6.70
2023-04-01T09:21:34.134Z,1.70
2023-04-01T09:24:28.020Z,1.37
2023-04-01T09:27:06.533Z,1.30
2023-04-01T09:29:55.774Z,2.00
2023-04-01T09:32:42.858Z,2.00
2023-04-01T09:35:25.205Z,1.85
2023-04-01T09:38:11.932Z,2.70
2023-04-01T09:40:49.416Z,2.40
2023-04-01T09:43:29.603Z,1.60
2023-04-01T09:46:21.721Z,1.63
2023-04-01T09:49:29.984Z,1.90
2023-04-01T09:52:17.242Z,1.77
2023-04-01T09:55:01.434Z,3.10
2023-04-01T09:58:17.530Z,1.92
2023-04-01T10:01:44.871Z,1.70
2023-04-01T10:04:59.665Z,2.05
2023-04-01T10:07:58.954Z,2.63
2023-04-01T10:10:57.663Z,2.00
2023-04-01T10:14:03.780Z,1.92
2023-04-01T10:17:09.379Z,3.10
2023-04-01T10:20:00.441Z,2.15
2023-04-01T10:22:54.062Z,2.73
2023-04-01T10:26:04.213Z,2.25
2023-04-01T10:29:01.038Z,3.07
2023-04-01T10:32:17.880Z,3.03
2023-04-01T10:35:26.015Z,2.60
2023-04-01T10:38:33.308Z,2.83
2023-04-01T10:41:36.415Z,2.60
2023-04-01T10:44:59.110Z,3.25
2023-04-01T10:48:06.288Z,3.00
2023-04-01T10:51:04.235Z,3.60
2023-04-01T10:53:56.767Z,4.50
2023-04-01T10:56:42.381Z,3.15
2023-04-01T10:59:57.762Z,4.60
2023-04-01T11:03:32.329Z,3.33
2023-04-01T11:07:21.932Z,2.90
2023-04-01T11:10:23.976Z,3.50
2023-04-01T11:13:19.549Z,3.20
2023-04-01T11:16:26.152Z,4.70
2023-04-01T11:19:43.504Z,2.90
2023-04-01T11:22:38.802Z,2.37
2023-04-01T11:25:58.909Z,1.92
2023-04-01T11:29:05.601Z,2.17
2023-04-01T11:31:50.122Z,2.88
2023-04-01T11:34:38.067Z,2.90
2023-04-01T11:37:18.819Z,3.53
2023-04-01T11:40:25.673Z,2.53
2023-04-01T11:43:32.934Z,2.50
2023-04-01T11:46:27.379Z,2.60
2023-04-01T11:49:06.268Z,2.20
2023-04-01T11:52:00.186Z,2.33
2023-04-01T11:54:47.573Z,1.85
2023-04-01T11:57:41.057Z,2.35
2023-04-01T12:00:47.123Z,2.40
2023-04-01T12:03:41.157Z,2.17
2023-04-01T12:06:16.640Z,2.13
2023-04-01T12:08:54.641Z,1.85
2023-04-01T12:11:32.452Z,2.03
2023-04-01T12:14:07.373Z,1.60
2023-04-01T12:16:54.083Z,2.97
2023-04-01T12:19:29.803Z,1.80
2023-04-01T12:22:14.971Z,2.95
2023-04-01T12:24:50.142Z,4.50
2023-04-01T12:27:33.237Z,3.07
2023-04-01T12:30:38.022Z,2.45
2023-04-01T12:33:38.501Z,2.63
2023-04-01T12:36:26.008Z,3.60
2023-04-01T12:39:13.596Z,5.13
2023-04-01T12:41:51.299Z,4.40
2023-04-01T12:44:36.612Z,3.45
2023-04-01T12:47:24.857Z,5.28
2023-04-01T12:50:11.655Z,5.80
2023-04-01T12:52:57.695Z,3.88
2023-04-01T12:55:41.718Z,5.85
2023-04-01T12:58:35.433Z,8.30
2023-04-01T13:01:30.929Z,14.02
2023-04-01T13:04:30.800Z,7.20
2023-04-01T13:07:24.733Z,6.32
2023-04-01T13:10:03.627Z,3.80
2023-04-01T13:13:00.966Z,5.70
2023-04-01T13:15:38.455Z,3.87
2023-04-01T13:18:19.586Z,6.63
2023-04-01T13:20:56.301Z,23.20
2023-04-01T13:23:39.406Z,21.10
2023-04-01T13:26:19.671Z,34.50
2023-04-01T13:28:54.711Z,15.90
2023-04-01T13:31:41.126Z,22.95
2023-04-01T13:34:23.160Z,38.33
2023-04-01T13:37:05.351Z,25.73
2023-04-01T13:39:59.515Z,27.63
2023-04-01T13:42:30.958Z,10.68
2023-04-01T13:45:04.658Z,6.65
2023-04-01T13:48:07.513Z,4.53
2023-04-01T13:50:51.885Z,8.00
2023-04-01T13:53:46.458Z,5.40
2023-04-01T13:56:24.628Z,4.28
2023-04-01T13:59:10.093Z,3.60
2023-04-01T14:01:44.565Z,4.50
2023-04-01T14:04:45.721Z,4.63
2023-04-01T14:07:34.605Z,5.80
2023-04-01T14:10:23.522Z,5.18
2023-04-01T14:13:00.418Z,4.53
2023-04-01T14:15:44.098Z,4.03
2023-04-01T14:18:32.417Z,4.80
2023-04-01T14:21:14.600Z,5.83
2023-04-01T14:24:00.633Z,4.40
2023-04-01T14:26:57.782Z,5.97
2023-04-01T14:29:35.461Z,4.93
2023-04-01T14:32:15.010Z,7.85
2023-04-01T14:34:59.892Z,6.00
2023-04-01T14:37:56.835Z,4.60
2023-04-01T14:40:30.682Z,4.45
2023-04-01T14:43:16.685Z,3.77
2023-04-01T14:46:08.341Z,3.20
2023-04-01T14:48:40.470Z,4.60
2023-04-01T14:51:18.770Z,4.28
2023-04-01T14:54:01.026Z,4.07
2023-04-01T14:56:44.237Z,4.00
2023-04-01T14:59:17.538Z,5.70
2023-04-01T15:01:56.680Z,4.93
2023-04-01T15:04:45.880Z,4.22
2023-04-01T15:07:51.959Z,3.95
2023-04-01T15:10:37.093Z,3.80
2023-04-01T15:13:16.714Z,5.00
2023-04-01T15:16:00.968Z,4.20
2023-04-01T15:18:43.244Z,5.32
2023-04-01T15:21:22.731Z,5.80
2023-04-01T15:24:02.105Z,4.57
2023-04-01T15:26:52.788Z,3.90
2023-04-01T15:29:38.780Z,5.13
2023-04-01T15:32:18.064Z,5.27
2023-04-01T15:34:56.438Z,5.37
2023-04-01T15:37:36.013Z,5.20
2023-04-01T15:40:17.942Z,6.03
2023-04-01T15:42:57.776Z,7.57
2023-04-01T15:45:38.194Z,7.43
2023-04-01T15:48:27.217Z,5.85
2023-04-01T15:51:11.619Z,7.15
2023-04-01T15:53:56.649Z,6.50
2023-04-01T15:56:32.387Z,6.72
2023-04-01T15:59:20.557Z,10.90
2023-04-01T16:01:55.594Z,40.58
2023-04-01T16:04:51.886Z,6.60
2023-04-01T16:07:41.297Z,8.40
2023-04-01T16:10:23.907Z,8.43
2023-04-01T16:13:05.042Z,8.70
2023-04-01T16:15:41.842Z,7.30
2023-04-01T16:18:29.274Z,8.43
2023-04-01T16:21:03.354Z,7.70
2023-04-01T16:23:39.513Z,9.25
2023-04-01T16:26:11.928Z,7.18
2023-04-01T16:28:50.714Z,12.07
2023-04-01T16:31:37.066Z,9.10
2023-04-01T16:34:11.261Z,8.65
2023-04-01T16:36:46.929Z,8.27
2023-04-01T16:39:32.174Z,12.73
2023-04-01T16:42:29.445Z,11.60
2023-04-01T16:45:03.256Z,7.82
2023-04-01T16:47:37.286Z,10.43
2023-04-01T16:50:16.154Z,6.78
2023-04-01T16:53:00.820Z,8.20
2023-04-01T16:55:44.052Z,6.57
2023-04-01T16:58:20.176Z,5.40
2023-04-01T17:00:52.937Z,6.63
2023-04-01T17:03:29.515Z,8.07
2023-04-01T17:06:09.489Z,9.55
2023-04-01T17:08:52.750Z,15.15
2023-04-01T17:11:23.959Z,18.20
2023-04-01T17:14:01.042Z,16.27
2023-04-01T17:16:52.800Z,12.68
2023-04-01T17:19:37.036Z,16.13
2023-04-01T17:22:16.675Z,20.77
2023-04-01T17:25:02.681Z,12.40
2023-04-01T17:27:41.758Z,8.80
2023-04-01T17:30:33.430Z,6.03
2023-04-01T17:33:40.583Z,4.88
2023-04-01T17:36:18.359Z,5.33
2023-04-01T17:39:03.654Z,5.10
2023-04-01T17:41:43.807Z,7.35
2023-04-01T17:44:26.958Z,4.43
2023-04-01T17:47:15.483Z,5.00
2023-04-01T17:49:53.520Z,6.30
2023-04-01T17:52:32.688Z,6.60
2023-04-01T17:55:15.074Z,7.82
2023-04-01T17:57:52.531Z,8.75
2023-04-01T18:00:35.319Z,6.63
2023-04-01T18:03:23.946Z,8.80
2023-04-01T18:06:06.112Z,4.80
2023-04-01T18:08:51.959Z,5.55
2023-04-01T18:11:29.240Z,5.10
2023-04-01T18:14:19.849Z,6.13
2023-04-01T18:17:08.155Z,7.00
2023-04-01T18:19:48.864Z,18.13
2023-04-01T18:22:22.282Z,15.77
2023-04-01T18:25:03.250Z,9.07
2023-04-01T18:27:35.863Z,6.80
2023-04-01T18:30:13.945Z,10.30
2023-04-01T18:32:50.310Z,8.23
2023-04-01T18:35:27.135Z,8.88
2023-04-01T18:38:00.227Z,7.95
2023-04-01T18:40:36.120Z,11.10
2023-04-01T18:43:14.960Z,14.35
2023-04-01T18:45:47.983Z,16.40
2023-04-01T18:48:44.844Z,11.32
2023-04-01T18:51:18.670Z,11.32
2023-04-01T18:53:55.763Z,8.97
2023-04-01T18:56:32.724Z,9.20
2023-04-01T18:59:07.044Z,8.20
2023-04-01T19:01:41.757Z,4.90
2023-04-01T19:04:21.466Z,2.85
2023-04-01T19:06:53.130Z,2.75
2023-04-01T19:09:25.819Z,2.47
2023-04-01T19:12:22.061Z,2.43
2023-04-01T19:15:08.604Z,1.90
2023-04-01T19:17:53.366Z,2.08
2023-04-01T19:20:28.667Z,1.60
2023-04-01T19:23:38.624Z,2.40
2023-04-01T19:26:12.213Z,2.58
2023-04-01T19:28:49.661Z,1.87
2023-04-01T19:31:35.560Z,2.10
2023-04-01T19:34:14.959Z,2.50
2023-04-01T19:36:49.734Z,2.10
2023-04-01T19:39:30.747Z,1.77
2023-04-01T19:42:05.340Z,2.30
2023-04-01T19:44:45.091Z,2.28
2023-04-01T19:47:22.899Z,3.42
2023-04-01T19:50:02.469Z,2.23
2023-04-01T19:52:35.070Z,2.60
2023-04-01T19:55:11.260Z,3.90
2023-04-01T19:57:48.690Z,2.53
2023-04-01T20:00:26.040Z,3.70
2023-04-01T20:03:19.214Z,3.47
2023-04-01T20:05:53.514Z,5.10
2023-04-01T20:08:30.366Z,3.42
2023-04-01T20:11:09.842Z,3.30
2023-04-01T20:13:48.463Z,2.90
2023-04-01T20:16:19.259Z,4.10
2023-04-01T20:18:53.674Z,3.45
2023-04-01T20:21:37.144Z,3.53
2023-04-01T20:24:18.074Z,3.10
2023-04-01T20:26:52.199Z,2.92
2023-04-01T20:29:44.751Z,3.70
2023-04-01T20:32:28.271Z,3.70
2023-04-01T20:35:17.216Z,4.33
2023-04-01T20:37:52.236Z,3.03
2023-04-01T20:40:34.128Z,3.20
2023-04-01T20:43:31.573Z,3.25
2023-04-01T20:46:02.337Z,3.20
2023-04-01T20:49:06.580Z,3.38
2023-04-01T20:51:41.040Z,2.70
2023-04-01T20:54:26.068Z,2.80
2023-04-01T20:57:07.224Z,2.60
2023-04-01T20:59:57.519Z,2.60
2023-04-01T21:02:44.160Z,2.80
2023-04-01T21:05:43.141Z,2.80
2023-04-01T21:08:20.145Z,2.50
2023-04-01T21:10:56.385Z,2.22
2023-04-01T21:13:35.428Z,2.97
2023-04-01T21:16:17.327Z,3.08
2023-04-01T21:19:06.251Z,2.90
2023-04-01T21:21:52.370Z,3.17
2023-04-01T21:24:50.996Z,2.90
2023-04-01T21:27:29.563Z,4.22
2023-04-01T21:30:11.004Z,3.20
2023-04-01T21:32:55.706Z,7.15
2023-04-01T21:35:32.137Z,5.55
2023-04-01T21:38:23.133Z,6.78
2023-04-01T21:41:20.070Z,7.47
2023-04-01T21:44:27.444Z,4.72
2023-04-01T21:47:31.977Z,3.78
2023-04-01T21:50:38.558Z,4.43
2023-04-01T21:53:35.322Z,3.70
2023-04-01T21:56:42.103Z,4.50
2023-04-01T21:59:42.606Z,4.88
2023-04-01T22:02:44.462Z,5.67
2023-04-01T22:05:16.400Z,5.30
2023-04-01T22:07:50.136Z,5.28
2023-04-01T22:10:29.189Z,5.20
2023-04-01T22:13:06.552Z,6.45
2023-04-01T22:15:56.578Z,5.50
2023-04-01T22:18:34.621Z,7.60
2023-04-01T22:21:09.543Z,5.78
2023-04-01T22:23:48.914Z,4.55
2023-04-01T22:26:27.848Z,4.43
2023-04-01T22:29:03.370Z,4.35
2023-04-01T22:31:41.131Z,4.10
2023-04-01T22:34:16.151Z,3.50
2023-04-01T22:36:55.004Z,3.97
2023-04-01T22:39:38.968Z,4.72
2023-04-01T22:42:21.773Z,4.10
2023-04-01T22:45:01.303Z,4.20
2023-04-01T22:47:40.296Z,5.05
2023-04-01T22:50:17.117Z,5.50
2023-04-01T22:52:49.214Z,5.03
2023-04-01T22:55:23.603Z,5.28
2023-04-01T22:57:59.433Z,5.33
2023-04-01T23:00:35.209Z,5.13
2023-04-01T23:03:11.171Z,5.13
2023-04-01T23:05:45.331Z,6.30
2023-04-01T23:08:47.812Z,5.60
2023-04-01T23:11:19.948Z,6.25
2023-04-01T23:13:55.089Z,7.20
2023-04-01T23:16:31.205Z,5.10
2023-04-01T23:19:08.444Z,6.07
2023-04-01T23:21:40.647Z,5.60
2023-04-01T23:24:19.082Z,4.78
2023-04-01T23:26:54.807Z,3.90
2023-04-01T23:29:26.899Z,3.70
2023-04-01T23:32:00.746Z,3.85
2023-04-01T23:34:34.725Z,4.35
2023-04-01T23:37:10.924Z,4.82
2023-04-01T23:39:41.571Z,5.00
2023-04-01T23:42:17.278Z,4.40
2023-04-01T23:44:47.723Z,4.18
2023-04-01T23:47:20.125Z,4.30
2023-04-01T23:49:50.567Z,6.00
2023-04-01T23:52:24.212Z,4.45
2023-04-01T23:54:56.350Z,4.90
2023-04-01T23:57:28.927Z,6.20
